map of SYX home
SYX - Airport
Location
City:  Sanya, Hainan, China
Name:Fenghuang International Airport
Old (Alt.):Phoenix International Airport
ICAO:ZJSY
IATA:SYX

Details
Type:Airport (Aerodrome, Airfield)
Use:Public/Civil, International (customs port of entry)
Latitude:1818'N (18.302)
Longitude:10925'E (109.413)
Elevation:95 ft (29 m)
Variation:1.59W (WMM2015 magnetic declination)
-0.04 annual change
Runways:1
Longest:11155 × 148 ft (3400 × 45 m), paved

Time
Time Zone:UTC+8
Local Time:

Weather
METAR:ZJSY 111500Z 07003MPS 7000 BKN050 22/16 Q1017 NOSIG

Related Locations
Nearby:
Farthest:ARI: 12432 mi / 20008 km
Arica [Chacalluta Intl], AP, CL

Find:

   beyond  
but within

Other Information
Maps:
NOTAMs:
Links:
Sources:

  
flag of China   

Sectional Chart

Flight Planning
at skyvector.com

Satellite Image

Google Maps Satellite view

 

Copyright © 2004-2017 Karl L. Swartz. All rights reserved.
The Great Circle Mapper name and logo are trademarks of the Great Circle Mapper.
All other trademarks mentioned herein belong to their respective owners.
Please see credits for attibutions and further copyright information.

  Follow gcmap on Facebook Follow gcmap on Twitter Follow gcmap on Google+ GCmap on LinkedIn

hCard Microformat

Geo Microformat